createdAt,value
2023-08-26T00:02:16.072Z,62.40
2023-08-26T00:04:43.017Z,62.77
2023-08-26T00:07:09.855Z,62.01
2023-08-26T00:09:36.746Z,61.56
2023-08-26T00:12:04.180Z,61.17
2023-08-26T00:14:31.037Z,60.86
2023-08-26T00:16:58.167Z,60.81
2023-08-26T00:19:25.753Z,60.60
2023-08-26T00:21:52.698Z,61.11
2023-08-26T00:24:20.097Z,62.00
2023-08-26T00:26:47.028Z,62.61
2023-08-26T00:29:13.936Z,63.20
2023-08-26T00:31:41.232Z,63.55
2023-08-26T00:34:08.278Z,64.14
2023-08-26T00:36:35.302Z,64.66
2023-08-26T00:39:02.415Z,65.43
2023-08-26T00:41:30.197Z,65.57
2023-08-26T00:43:57.199Z,65.98
2023-08-26T00:46:24.260Z,66.49
2023-08-26T00:48:51.453Z,66.46
2023-08-26T00:51:18.664Z,66.47
2023-08-26T00:53:47.562Z,66.73
2023-08-26T00:56:15.276Z,66.96
2023-08-26T00:58:43.194Z,67.27
2023-08-26T01:01:10.276Z,66.92
2023-08-26T01:03:39.417Z,67.02
2023-08-26T01:06:06.807Z,67.12
2023-08-26T01:08:34.304Z,67.71
2023-08-26T01:11:12.997Z,67.98
2023-08-26T01:14:18.925Z,68.21
2023-08-26T01:16:45.897Z,68.49
2023-08-26T01:19:31.600Z,68.42
2023-08-26T01:22:03.062Z,69.23
2023-08-26T01:24:32.696Z,69.11
2023-08-26T01:27:00.076Z,69.24
2023-08-26T01:29:27.140Z,69.50
2023-08-26T01:32:05.494Z,69.67
2023-08-26T01:34:35.279Z,69.58
2023-08-26T01:37:04.341Z,69.44
2023-08-26T01:39:32.228Z,69.14
2023-08-26T01:42:01.716Z,69.17
2023-08-26T01:44:30.469Z,69.03
2023-08-26T01:46:58.209Z,69.44
2023-08-26T01:49:25.172Z,69.70
2023-08-26T01:51:52.681Z,70.07
2023-08-26T01:54:19.606Z,70.29
2023-08-26T01:56:48.415Z,70.23
2023-08-26T01:59:15.306Z,70.56
2023-08-26T02:01:42.295Z,70.52
2023-08-26T02:04:09.314Z,70.72
2023-08-26T02:06:37.943Z,70.93
2023-08-26T02:09:04.843Z,71.53
2023-08-26T02:11:31.839Z,71.52
2023-08-26T02:13:59.335Z,72.04
2023-08-26T02:16:26.204Z,71.74
2023-08-26T02:18:53.070Z,71.83
2023-08-26T02:21:20.073Z,71.74
2023-08-26T02:23:47.129Z,71.76
2023-08-26T02:26:16.437Z,71.41
2023-08-26T02:28:43.876Z,70.88
2023-08-26T02:31:10.937Z,71.14
2023-08-26T02:33:38.000Z,71.29
2023-08-26T02:36:05.604Z,71.37
2023-08-26T02:38:32.586Z,71.52
2023-08-26T02:41:01.213Z,71.89
2023-08-26T02:43:28.191Z,71.87
2023-08-26T02:45:56.860Z,71.61
2023-08-26T02:48:24.381Z,71.62
2023-08-26T02:51:02.435Z,71.76
2023-08-26T02:53:31.266Z,71.28
2023-08-26T02:55:58.391Z,71.22
2023-08-26T02:58:25.959Z,71.34
2023-08-26T03:00:54.089Z,72.10
2023-08-26T03:03:21.066Z,71.83
2023-08-26T03:05:48.360Z,71.94
2023-08-26T03:08:15.324Z,71.62
2023-08-26T03:10:42.217Z,71.37
2023-08-26T03:13:09.137Z,71.18
2023-08-26T03:15:36.105Z,71.25
2023-08-26T03:18:03.267Z,71.25
2023-08-26T03:20:30.362Z,71.22
2023-08-26T03:22:57.326Z,71.22
2023-08-26T03:25:24.229Z,71.45
2023-08-26T03:27:52.419Z,71.79
2023-08-26T03:30:19.554Z,72.14
2023-08-26T03:32:46.635Z,71.74
2023-08-26T03:35:13.592Z,71.89
2023-08-26T03:37:40.535Z,72.23
2023-08-26T03:40:08.025Z,72.37
2023-08-26T03:42:35.010Z,72.85
2023-08-26T03:45:01.901Z,72.62
2023-08-26T03:47:28.767Z,72.66
2023-08-26T03:49:55.723Z,72.85
2023-08-26T03:52:22.646Z,73.37
2023-08-26T03:54:51.105Z,73.78
2023-08-26T03:57:18.276Z,73.99
2023-08-26T03:59:45.252Z,74.08
2023-08-26T04:02:12.227Z,74.37
2023-08-26T04:04:39.082Z,74.84
2023-08-26T04:07:06.035Z,74.94
2023-08-26T04:09:32.936Z,74.67
2023-08-26T04:11:59.908Z,74.81
2023-08-26T04:14:26.787Z,75.48
2023-08-26T04:16:53.737Z,75.29
2023-08-26T04:19:21.264Z,75.70
2023-08-26T04:21:48.264Z,75.16
2023-08-26T04:24:15.219Z,75.39
2023-08-26T04:26:42.159Z,75.20
2023-08-26T04:29:09.133Z,74.96
2023-08-26T04:31:36.340Z,74.85
2023-08-26T04:34:03.410Z,74.36
2023-08-26T04:36:30.510Z,74.45
2023-08-26T04:38:57.853Z,74.45
2023-08-26T04:41:24.792Z,72.81
2023-08-26T04:43:54.202Z,73.12
2023-08-26T04:46:22.630Z,73.55
2023-08-26T04:48:51.774Z,73.51
2023-08-26T04:51:18.803Z,73.49
2023-08-26T04:53:45.746Z,73.56
2023-08-26T04:56:12.761Z,73.82
2023-08-26T04:58:39.808Z,73.50
2023-08-26T05:01:07.012Z,73.13
2023-08-26T05:03:34.801Z,73.33
2023-08-26T05:06:01.883Z,73.41
2023-08-26T05:08:28.816Z,73.38
2023-08-26T05:10:55.794Z,72.87
2023-08-26T05:13:22.698Z,73.23
2023-08-26T05:15:49.748Z,72.99
2023-08-26T05:18:17.607Z,72.31
2023-08-26T05:20:46.210Z,72.53
2023-08-26T05:23:14.040Z,71.86
2023-08-26T05:25:41.767Z,70.88
2023-08-26T05:28:08.738Z,70.07
2023-08-26T05:30:37.042Z,70.92
2023-08-26T05:33:04.098Z,70.50
2023-08-26T05:35:31.049Z,70.73
2023-08-26T05:37:58.737Z,70.03
2023-08-26T05:40:27.881Z,69.95
2023-08-26T05:42:56.958Z,69.63
2023-08-26T05:45:25.794Z,70.30
2023-08-26T05:47:56.150Z,69.43
2023-08-26T05:50:23.735Z,69.23
2023-08-26T05:52:50.713Z,68.33
2023-08-26T05:55:17.861Z,68.12
2023-08-26T05:57:44.791Z,68.11
2023-08-26T06:00:12.786Z,68.06
2023-08-26T06:02:48.219Z,68.06
2023-08-26T06:05:17.527Z,67.77
2023-08-26T06:07:46.195Z,67.17
2023-08-26T06:10:13.155Z,67.43
2023-08-26T06:12:40.294Z,67.22
2023-08-26T06:15:10.991Z,67.47
2023-08-26T06:17:38.164Z,67.10
2023-08-26T06:20:05.656Z,67.18
2023-08-26T06:22:32.704Z,67.05
2023-08-26T06:25:00.609Z,67.22
2023-08-26T06:27:27.578Z,67.02
2023-08-26T06:29:55.937Z,66.41
2023-08-26T06:32:23.125Z,65.76
2023-08-26T06:34:50.948Z,65.44
2023-08-26T06:37:18.122Z,64.84
2023-08-26T06:39:45.121Z,63.45
2023-08-26T06:42:11.969Z,63.12
2023-08-26T06:44:51.472Z,62.06
2023-08-26T06:47:18.379Z,61.97
2023-08-26T06:49:45.391Z,61.59
2023-08-26T06:52:12.262Z,61.21
2023-08-26T06:54:40.145Z,61.18
2023-08-26T06:57:07.581Z,60.97
2023-08-26T06:59:34.563Z,61.03
2023-08-26T07:02:01.399Z,61.48
2023-08-26T07:04:28.393Z,60.41
2023-08-26T07:06:55.307Z,59.19
2023-08-26T07:09:22.306Z,58.42
2023-08-26T07:11:49.156Z,58.00
2023-08-26T07:14:16.179Z,58.27
2023-08-26T07:16:43.043Z,57.00
2023-08-26T07:19:10.091Z,56.32
2023-08-26T07:21:36.956Z,55.57
2023-08-26T07:24:04.092Z,55.70
2023-08-26T07:26:30.973Z,55.05
2023-08-26T07:28:57.830Z,54.53
2023-08-26T07:31:24.826Z,54.56
2023-08-26T07:33:51.976Z,55.27
2023-08-26T07:36:18.931Z,54.83
2023-08-26T07:38:45.876Z,54.30
2023-08-26T07:41:12.699Z,54.69
2023-08-26T07:43:39.717Z,54.78
2023-08-26T07:48:38.117Z,54.75
2023-08-26T07:51:05.504Z,54.58
2023-08-26T07:53:32.418Z,54.72
2023-08-26T07:55:59.297Z,54.83
2023-08-26T07:58:26.267Z,55.61
2023-08-26T08:00:53.178Z,56.02
2023-08-26T08:03:20.249Z,56.26
2023-08-26T08:05:47.194Z,56.24
2023-08-26T08:08:14.126Z,58.15
2023-08-26T08:10:42.389Z,59.21
2023-08-26T08:13:11.359Z,60.09
2023-08-26T08:15:38.360Z,60.29
2023-08-26T08:18:05.528Z,60.23
2023-08-26T08:20:32.542Z,60.20
2023-08-26T08:22:59.805Z,60.67
2023-08-26T08:25:26.914Z,60.52
2023-08-26T08:27:54.291Z,61.04
2023-08-26T08:30:21.383Z,60.71
2023-08-26T08:32:48.343Z,60.55
2023-08-26T08:35:15.273Z,60.60
2023-08-26T08:37:42.154Z,61.08
2023-08-26T08:40:09.384Z,61.20
2023-08-26T08:42:40.932Z,61.20
2023-08-26T08:45:09.327Z,61.41
2023-08-26T08:47:36.896Z,62.01
2023-08-26T08:50:04.088Z,62.35
2023-08-26T08:52:32.855Z,62.54
2023-08-26T08:54:59.914Z,62.84
2023-08-26T08:57:33.378Z,63.20
2023-08-26T09:00:01.958Z,63.95
2023-08-26T09:02:29.323Z,64.00
2023-08-26T09:04:56.996Z,63.72
2023-08-26T09:07:27.411Z,63.92
2023-08-26T09:10:01.975Z,63.67
2023-08-26T09:12:33.172Z,63.74
2023-08-26T09:15:00.088Z,63.21
2023-08-26T09:17:27.009Z,63.11
2023-08-26T09:19:59.706Z,62.74
2023-08-26T09:22:31.691Z,62.20
2023-08-26T09:25:03.480Z,61.27
2023-08-26T09:27:34.669Z,61.56
2023-08-26T09:30:02.695Z,61.37
2023-08-26T09:32:37.499Z,61.24
2023-08-26T09:35:15.005Z,59.99
2023-08-26T09:37:44.708Z,59.63
2023-08-26T09:40:16.189Z,60.31
2023-08-26T09:42:43.849Z,60.57
2023-08-26T09:45:12.247Z,59.43
2023-08-26T09:47:39.249Z,59.09
2023-08-26T09:50:09.047Z,58.76
2023-08-26T09:52:46.480Z,58.44
2023-08-26T09:55:13.744Z,58.43
2023-08-26T09:57:41.551Z,57.75
2023-08-26T10:00:09.324Z,55.95
2023-08-26T10:02:50.619Z,55.38
2023-08-26T10:05:22.544Z,54.56
2023-08-26T10:07:53.634Z,53.76
2023-08-26T10:10:47.795Z,52.28
2023-08-26T10:13:20.398Z,51.53
2023-08-26T10:15:51.562Z,51.41
2023-08-26T10:18:46.770Z,50.77
2023-08-26T10:21:15.101Z,50.28
2023-08-26T10:23:43.239Z,49.41
2023-08-26T10:26:12.728Z,48.39
2023-08-26T10:28:41.184Z,48.36
2023-08-26T10:31:09.309Z,47.87
2023-08-26T10:34:00.717Z,47.77
2023-08-26T10:36:28.284Z,47.77
2023-08-26T10:38:56.695Z,46.22
2023-08-26T10:41:23.862Z,46.73
2023-08-26T10:43:59.033Z,46.33
2023-08-26T10:46:39.134Z,46.67
2023-08-26T10:49:06.179Z,47.50
2023-08-26T10:51:36.714Z,47.13
2023-08-26T10:54:06.482Z,47.99
2023-08-26T10:56:33.698Z,47.32
2023-08-26T10:59:05.866Z,46.91
2023-08-26T11:01:36.586Z,46.95
2023-08-26T11:04:06.977Z,46.44
2023-08-26T11:06:38.260Z,47.00
2023-08-26T11:09:05.946Z,46.83
2023-08-26T11:11:33.858Z,46.35
2023-08-26T11:14:00.815Z,46.45
2023-08-26T11:16:27.890Z,46.42
2023-08-26T11:18:55.584Z,46.47
2023-08-26T11:21:23.874Z,46.21
2023-08-26T11:23:52.807Z,46.09
2023-08-26T11:26:22.777Z,46.29
2023-08-26T11:28:50.213Z,46.67
2023-08-26T11:31:17.967Z,46.33
2023-08-26T11:33:46.968Z,46.39
2023-08-26T11:36:14.021Z,46.41
2023-08-26T11:38:41.077Z,46.34
2023-08-26T11:41:08.934Z,46.03
2023-08-26T11:43:36.777Z,44.92
2023-08-26T11:46:05.653Z,45.67
2023-08-26T11:48:36.567Z,45.24
2023-08-26T11:51:03.911Z,45.34
2023-08-26T11:53:31.151Z,45.61
2023-08-26T11:55:58.359Z,45.34
2023-08-26T11:58:27.738Z,45.30
2023-08-26T12:00:56.101Z,45.04
2023-08-26T12:03:23.274Z,45.72
2023-08-26T12:05:51.508Z,45.40
2023-08-26T12:08:18.943Z,44.75
2023-08-26T12:10:53.893Z,44.49
2023-08-26T12:13:21.589Z,44.54
2023-08-26T12:15:50.565Z,45.01
2023-08-26T12:18:20.822Z,44.64
2023-08-26T12:20:48.383Z,44.95
2023-08-26T12:23:18.958Z,45.62
2023-08-26T12:25:46.089Z,43.96
2023-08-26T12:28:16.152Z,43.95
2023-08-26T12:30:45.547Z,43.99
2023-08-26T12:33:23.186Z,44.67
2023-08-26T12:35:52.131Z,43.28
2023-08-26T12:38:19.117Z,42.95
2023-08-26T12:40:46.126Z,43.69
2023-08-26T12:43:13.168Z,43.76
2023-08-26T12:45:40.145Z,43.70
2023-08-26T12:48:07.565Z,43.16
2023-08-26T12:50:34.526Z,44.25
2023-08-26T12:53:01.496Z,44.34
2023-08-26T12:55:28.529Z,44.39
2023-08-26T12:57:56.036Z,44.21
2023-08-26T13:00:23.268Z,44.48
2023-08-26T13:02:50.374Z,44.78
2023-08-26T13:05:17.422Z,44.84
2023-08-26T13:07:44.460Z,45.00
2023-08-26T13:10:11.504Z,45.61
2023-08-26T13:12:38.472Z,45.44
2023-08-26T13:15:06.104Z,45.67
2023-08-26T13:17:33.084Z,45.91
2023-08-26T13:20:00.122Z,45.74
2023-08-26T13:22:28.179Z,45.31
2023-08-26T13:24:55.187Z,45.45
2023-08-26T13:27:22.134Z,45.86
2023-08-26T13:29:49.195Z,45.53
2023-08-26T13:32:16.117Z,45.48
2023-08-26T13:34:43.138Z,44.62
2023-08-26T13:37:10.094Z,43.56
2023-08-26T13:39:37.040Z,43.23
2023-08-26T13:42:04.218Z,41.63
2023-08-26T13:44:31.197Z,41.18
2023-08-26T13:46:58.178Z,40.80
2023-08-26T13:49:25.442Z,39.78
2023-08-26T13:51:52.540Z,38.80
2023-08-26T13:54:19.558Z,40.14
2023-08-26T13:56:46.780Z,40.47
2023-08-26T13:59:13.679Z,39.72
2023-08-26T14:01:40.829Z,39.26
2023-08-26T14:04:07.791Z,40.02
2023-08-26T14:06:34.748Z,39.88
2023-08-26T14:09:01.727Z,40.36
2023-08-26T14:11:28.641Z,40.81
2023-08-26T14:13:55.668Z,41.10
2023-08-26T14:16:23.631Z,41.21
2023-08-26T14:18:51.021Z,41.44
2023-08-26T14:21:18.002Z,41.61
2023-08-26T14:23:46.925Z,40.74
2023-08-26T14:26:15.714Z,40.62
2023-08-26T14:28:42.730Z,40.61
2023-08-26T14:31:09.700Z,40.11
2023-08-26T14:33:37.285Z,39.97
2023-08-26T14:36:04.838Z,40.17
2023-08-26T14:38:31.860Z,40.33
2023-08-26T14:41:00.473Z,40.82
2023-08-26T14:43:27.509Z,41.33
2023-08-26T14:45:54.521Z,41.84
2023-08-26T14:48:21.615Z,42.41
2023-08-26T14:50:54.020Z,42.45
2023-08-26T14:53:21.087Z,42.88
2023-08-26T14:55:48.012Z,42.73
2023-08-26T14:58:15.612Z,41.59
2023-08-26T15:00:43.491Z,41.12
2023-08-26T15:03:10.696Z,40.79
2023-08-26T15:05:37.726Z,40.86
2023-08-26T15:08:04.953Z,41.40
2023-08-26T15:10:32.630Z,41.83
2023-08-26T15:12:59.641Z,41.88
2023-08-26T15:15:26.592Z,41.17
2023-08-26T15:17:53.712Z,40.34
2023-08-26T15:20:20.698Z,40.39
2023-08-26T15:22:47.784Z,41.34
2023-08-26T15:25:14.782Z,41.76
2023-08-26T15:27:41.756Z,42.52
2023-08-26T15:30:09.459Z,42.61
2023-08-26T15:32:36.513Z,42.46
2023-08-26T15:35:03.672Z,42.55
2023-08-26T15:37:30.615Z,42.48
2023-08-26T15:39:57.550Z,42.61
2023-08-26T15:42:24.572Z,41.75
2023-08-26T15:44:51.536Z,41.25
2023-08-26T15:47:18.504Z,41.59
2023-08-26T15:49:45.497Z,41.11
2023-08-26T15:52:12.464Z,40.26
2023-08-26T15:54:39.423Z,39.89
2023-08-26T15:57:06.396Z,39.20
2023-08-26T15:59:33.372Z,39.85
2023-08-26T16:02:00.752Z,40.20
2023-08-26T16:04:28.588Z,40.49
2023-08-26T16:06:55.564Z,39.58
2023-08-26T16:09:22.506Z,39.68
2023-08-26T16:11:49.499Z,40.09
2023-08-26T16:14:16.409Z,40.05
2023-08-26T16:16:43.422Z,39.86
2023-08-26T16:19:10.394Z,39.28
2023-08-26T16:21:37.466Z,39.59
2023-08-26T16:24:04.658Z,39.50
2023-08-26T16:26:32.191Z,39.50
2023-08-26T16:28:59.184Z,39.02
2023-08-26T16:31:26.237Z,39.69
2023-08-26T16:33:53.827Z,39.55
2023-08-26T16:36:20.803Z,39.45
2023-08-26T16:38:47.806Z,39.86
2023-08-26T16:41:14.996Z,40.20
2023-08-26T16:43:43.724Z,40.95
2023-08-26T16:46:10.749Z,40.45
2023-08-26T16:48:37.702Z,40.88
2023-08-26T16:51:04.819Z,40.99
2023-08-26T16:53:31.768Z,41.67
2023-08-26T16:55:58.733Z,42.02
2023-08-26T16:58:25.684Z,42.11
2023-08-26T17:00:52.741Z,42.12
2023-08-26T17:03:19.792Z,42.16
2023-08-26T17:05:50.680Z,42.63
2023-08-26T17:08:17.635Z,43.39
2023-08-26T17:10:44.594Z,43.18
2023-08-26T17:13:11.726Z,43.50
2023-08-26T17:15:39.395Z,43.46
2023-08-26T17:18:06.470Z,43.53
2023-08-26T17:20:33.507Z,43.87
2023-08-26T17:23:00.825Z,44.40
2023-08-26T17:25:27.982Z,44.81
2023-08-26T17:27:54.970Z,45.04
2023-08-26T17:30:22.117Z,44.53
2023-08-26T17:32:49.197Z,46.29
2023-08-26T17:35:16.428Z,45.11
2023-08-26T17:37:43.384Z,46.02
2023-08-26T17:40:10.614Z,46.54
2023-08-26T17:42:37.612Z,46.06
2023-08-26T17:48:20.891Z,47.49
2023-08-26T17:50:52.855Z,46.16
2023-08-26T17:53:20.390Z,46.21
2023-08-26T17:55:47.441Z,47.18
2023-08-26T17:58:14.419Z,47.02
2023-08-26T18:00:44.385Z,47.51
2023-08-26T18:03:14.164Z,48.25
2023-08-26T18:05:42.405Z,47.63
2023-08-26T18:08:09.990Z,47.48
2023-08-26T18:10:37.549Z,48.20
2023-08-26T18:13:05.707Z,48.43
2023-08-26T18:15:32.765Z,49.56
2023-08-26T18:17:59.766Z,49.27
2023-08-26T18:20:27.240Z,49.12
2023-08-26T18:22:54.334Z,49.61
2023-08-26T18:25:21.385Z,49.89
2023-08-26T18:27:48.292Z,49.58
2023-08-26T18:30:15.518Z,49.67
2023-08-26T18:32:42.467Z,49.57
2023-08-26T18:35:09.610Z,49.96
2023-08-26T18:37:36.878Z,50.08
2023-08-26T18:40:05.027Z,50.10
2023-08-26T18:42:32.422Z,50.18
2023-08-26T18:44:59.416Z,50.38
2023-08-26T18:47:27.220Z,50.34
2023-08-26T18:49:55.621Z,50.58
2023-08-26T18:52:22.910Z,51.47
2023-08-26T18:54:50.360Z,51.49
2023-08-26T18:57:17.433Z,51.41
2023-08-26T18:59:45.605Z,51.38
2023-08-26T19:02:13.040Z,51.63
2023-08-26T19:04:40.141Z,52.37
2023-08-26T19:07:07.377Z,53.05
2023-08-26T19:09:34.759Z,52.72
2023-08-26T19:12:01.968Z,52.87
2023-08-26T19:14:29.289Z,53.43
2023-08-26T19:16:57.737Z,53.86
2023-08-26T19:19:25.159Z,54.23
2023-08-26T19:21:52.536Z,54.95
2023-08-26T19:24:19.697Z,54.93
2023-08-26T19:26:47.706Z,55.15
2023-08-26T19:29:15.037Z,54.42
2023-08-26T19:31:41.989Z,54.79
2023-08-26T19:34:09.090Z,55.17
2023-08-26T19:36:36.330Z,53.91
2023-08-26T19:39:03.470Z,53.01
2023-08-26T19:41:41.341Z,52.43
2023-08-26T19:44:08.423Z,52.29
2023-08-26T19:46:35.895Z,51.19
2023-08-26T19:49:03.049Z,51.29
2023-08-26T19:51:30.237Z,51.43
2023-08-26T19:53:57.446Z,51.81
2023-08-26T19:56:25.288Z,53.42
2023-08-26T19:58:52.762Z,55.12
2023-08-26T20:01:20.186Z,56.12
2023-08-26T20:03:57.034Z,57.19
2023-08-26T20:06:24.656Z,58.29
2023-08-26T20:08:51.669Z,59.11
2023-08-26T20:11:18.925Z,60.40
2023-08-26T20:13:46.041Z,60.95
2023-08-26T20:16:13.787Z,61.45
2023-08-26T20:18:41.432Z,62.11
2023-08-26T20:21:08.891Z,62.25
2023-08-26T20:23:36.111Z,62.68
2023-08-26T20:26:05.209Z,62.76
2023-08-26T20:28:32.480Z,63.47
2023-08-26T20:31:02.263Z,64.27
2023-08-26T20:33:30.469Z,65.41
2023-08-26T20:36:01.223Z,66.31
2023-08-26T20:38:28.749Z,67.10
2023-08-26T20:41:05.900Z,67.53
2023-08-26T20:43:33.557Z,67.68
2023-08-26T20:46:01.301Z,68.21
2023-08-26T20:48:28.729Z,68.27
2023-08-26T20:50:57.052Z,68.28
2023-08-26T20:53:25.063Z,68.27
2023-08-26T20:55:55.904Z,68.09
2023-08-26T20:58:24.407Z,67.71
2023-08-26T21:00:54.323Z,67.87
2023-08-26T21:03:21.398Z,67.91
2023-08-26T21:05:49.594Z,68.40
2023-08-26T21:08:17.703Z,68.36
2023-08-26T21:10:44.985Z,68.36
2023-08-26T21:13:13.975Z,68.19
2023-08-26T21:15:44.091Z,67.95
2023-08-26T21:18:12.742Z,67.60
2023-08-26T21:20:39.733Z,67.37
2023-08-26T21:23:06.861Z,67.75
2023-08-26T21:25:34.138Z,67.67
2023-08-26T21:28:02.435Z,67.98
2023-08-26T21:30:29.845Z,67.82
2023-08-26T21:32:59.227Z,67.85
2023-08-26T21:35:26.998Z,67.35
2023-08-26T21:37:54.283Z,67.01
2023-08-26T21:40:21.511Z,67.51
2023-08-26T21:42:48.826Z,66.64
2023-08-26T21:45:16.088Z,66.78
2023-08-26T21:47:43.160Z,67.35
2023-08-26T21:50:10.193Z,66.83
2023-08-26T21:52:37.409Z,66.86
2023-08-26T21:55:04.837Z,66.19
2023-08-26T21:57:31.790Z,65.64
2023-08-26T21:59:59.000Z,65.76
2023-08-26T22:02:25.942Z,65.91
2023-08-26T22:04:52.932Z,66.00
2023-08-26T22:07:19.977Z,65.71
2023-08-26T22:09:47.046Z,65.70
2023-08-26T22:12:14.044Z,65.65
2023-08-26T22:14:40.998Z,65.88
2023-08-26T22:17:08.250Z,65.69
2023-08-26T22:19:35.126Z,65.60
2023-08-26T22:22:02.104Z,65.60
2023-08-26T22:24:29.031Z,66.09
2023-08-26T22:26:56.031Z,66.49
2023-08-26T22:29:23.042Z,66.36
2023-08-26T22:31:50.122Z,66.44
2023-08-26T22:34:17.177Z,66.48
2023-08-26T22:36:44.141Z,66.50
2023-08-26T22:39:19.489Z,66.49
2023-08-26T22:41:47.815Z,66.71
2023-08-26T22:44:14.769Z,66.61
2023-08-26T22:46:41.900Z,66.83
2023-08-26T22:49:08.894Z,66.78
2023-08-26T22:51:35.884Z,66.40
2023-08-26T22:54:02.822Z,66.75
2023-08-26T22:56:29.785Z,66.72
2023-08-26T22:58:56.771Z,66.49
2023-08-26T23:01:23.868Z,66.50
2023-08-26T23:03:51.006Z,66.40
2023-08-26T23:06:17.978Z,66.28
2023-08-26T23:08:44.985Z,66.25
2023-08-26T23:11:11.995Z,66.18
2023-08-26T23:13:39.036Z,66.27
2023-08-26T23:16:06.187Z,66.19
2023-08-26T23:18:33.141Z,66.12
2023-08-26T23:21:00.179Z,66.50
2023-08-26T23:23:27.168Z,66.24
2023-08-26T23:25:54.276Z,66.46
2023-08-26T23:28:21.299Z,66.37
2023-08-26T23:30:48.269Z,66.41
2023-08-26T23:33:15.240Z,66.62
2023-08-26T23:35:42.273Z,66.83
2023-08-26T23:38:09.271Z,66.68
2023-08-26T23:40:36.252Z,66.87
2023-08-26T23:43:03.275Z,66.94
2023-08-26T23:45:30.297Z,66.74
2023-08-26T23:47:57.265Z,66.61
2023-08-26T23:50:24.271Z,66.65
2023-08-26T23:52:51.387Z,67.01
2023-08-26T23:55:18.427Z,66.92
2023-08-26T23:57:45.523Z,66.83
